This is the latest recevied weather packets stored in our database for station/object WB4YDL. If no packets are shown the sender has not sent any weather packets the latest 10 day(s).
| Time | Temp. | Humidity | Pressure | Rain* | Wind** | Luminosity | Snow |
|---|---|---|---|---|---|---|---|
| 1778162229 | 13.89° C | 71% | 1013 hPa | 0 mm | - | 415 W/m² | - |
| 1778161927 | 13.33° C | 71% | 1012.9 hPa | 0 mm | - | 400 W/m² | - |
| 1778161623 | 13.33° C | 72% | 1013 hPa | 0 mm | - | 384 W/m² | - |
| 1778161319 | 13.33° C | 72% | 1013 hPa | 0 mm | - | 368 W/m² | - |
| 1778161015 | 13.33° C | 73% | 1012.9 hPa | 0 mm | - | 358 W/m² | - |
| 1778160713 | 13.33° C | 72% | 1013 hPa | 0 mm | - | 337 W/m² | - |
| 1778160410 | 12.78° C | 77% | 1013 hPa | 0 mm | - | 311 W/m² | - |
| 1778160106 | 12.22° C | 75% | 1012.7 hPa | 0 mm | - | 302 W/m² | - |
| 1778159803 | 12.22° C | 77% | 1012.7 hPa | 0 mm | - | 286 W/m² | - |
| 1778159500 | 12.22° C | 75% | 1012.7 hPa | 0 mm | - | 266 W/m² | - |
| 1778159197 | 12.22° C | 75% | 1012.9 hPa | 0 mm | - | 274 W/m² | - |
| 1778158895 | 11.67° C | 79% | 1012.8 hPa | 0 mm | - | 244 W/m² | - |
| 1778158593 | 11.11° C | 84% | 1012.7 hPa | 0 mm | - | 197 W/m² | - |
| 1778158291 | 10° C | 90% | 1012.6 hPa | 0 mm | - | 162 W/m² | - |
| 1778157987 | 10.56° C | 99% | 1012.7 hPa | 0 mm | - | 140 W/m² | - |
| 1778157685 | 10° C | 99% | 1012.7 hPa | 0 mm | - | 123 W/m² | - |
| 1778157383 | 9.44° C | 99% | 1012.6 hPa | 0 mm | - | 105 W/m² | - |
| 1778157080 | 9.44° C | 99% | 1012.6 hPa | 0 mm | - | 91 W/m² | - |
| 1778156775 | 9.44° C | 99% | 1012.6 hPa | 0 mm | - | 80 W/m² | - |
| 1778156471 | 10° C | 99% | 1012.4 hPa | 0 mm | - | 71 W/m² | - |
| 1778156167 | 10° C | 99% | 1012.4 hPa | 0 mm | - | 64 W/m² | - |
| 1778155863 | 8.89° C | 99% | 1012.2 hPa | 0 mm | - | 56 W/m² | - |
| 1778155559 | 8.89° C | 99% | 1012.3 hPa | 0 mm | - | 52 W/m² | - |
| 1778155256 | 8.33° C | 99% | 1012.3 hPa | 0 mm | - | 46 W/m² | - |
| 1778154952 | 7.78° C | 99% | 1012.1 hPa | 0 mm | - | 42 W/m² | - |
* Rain latest hour (hover to see other rain measurements)
** Current wind speed in m/s (hover to see current wind gust speed)